Jonesboro, Indiana
Current Conditions -  °F | °C
As of 2:35 PM on Saturday 25 Oct 2014 (Local Time) from KMZZ Reporting Station
Clear Clear  
Wind Chill: 72°   Ceiling: Unl
Heat Index: 72°   Visibility: 10mi
Dew Point: 50°   Wind: 16mph
Humidity: 45%   Direction: 290°WNW
Pressure: 29.92"   Gusts: 23mph
Location:  40.48°N, 85.63°W
Report Text: KMZZ 251835Z AUTO 29014G20KT 10SM CLR 22/10 A2992 RMK AO2 T02220098
Loading
Personal Weather Stations






























Interactive Weather Map
Tropical Storm Tracking
New forecast layout! Learn more

10-Day Weather Forecast

Advertisements
Track Severe Weather on mobile